sensor_id;sensor_type;location;lat;lon;timestamp;pressure;altitude;pressure_sealevel;temperature;humidity
46942;BME280;32676;52.630;4.896;2024-01-15T00:02:24;100896.09;;;3.41;73.91
46942;BME280;32676;52.630;4.896;2024-01-15T00:04:51;100886.56;;;3.39;73.81
46942;BME280;32676;52.630;4.896;2024-01-15T00:07:17;100847.66;;;3.19;73.74
46942;BME280;32676;52.630;4.896;2024-01-15T00:09:44;100859.75;;;3.31;73.92
46942;BME280;32676;52.630;4.896;2024-01-15T00:12:10;100852.84;;;3.26;73.89
46942;BME280;32676;52.630;4.896;2024-01-15T00:14:37;100840.69;;;3.27;74.37
46942;BME280;32676;52.630;4.896;2024-01-15T00:17:04;100826.88;;;3.23;74.94
46942;BME280;32676;52.630;4.896;2024-01-15T00:19:31;100819.97;;;3.21;75.18
46942;BME280;32676;52.630;4.896;2024-01-15T00:21:58;100795.72;;;3.13;75.76
46942;BME280;32676;52.630;4.896;2024-01-15T00:24:25;100794.88;;;3.14;76.01
46942;BME280;32676;52.630;4.896;2024-01-15T00:26:51;100792.28;;;3.17;76.29
46942;BME280;32676;52.630;4.896;2024-01-15T00:29:18;100784.50;;;3.11;76.47
46942;BME280;32676;52.630;4.896;2024-01-15T00:31:45;100781.91;;;3.14;76.88
46942;BME280;32676;52.630;4.896;2024-01-15T00:34:11;100776.69;;;3.11;77.25
46942;BME280;32676;52.630;4.896;2024-01-15T00:36:39;100758.56;;;3.06;77.41
46942;BME280;32676;52.630;4.896;2024-01-15T00:39:06;100781.91;;;3.14;77.77
46942;BME280;32676;52.630;4.896;2024-01-15T00:41:32;100785.34;;;3.16;78.12
46942;BME280;32676;52.630;4.896;2024-01-15T00:43:59;100785.34;;;3.16;78.42
46942;BME280;32676;52.630;4.896;2024-01-15T00:46:25;100798.31;;;3.17;78.50
46942;BME280;32676;52.630;4.896;2024-01-15T00:48:52;100799.19;;;3.18;78.64
46942;BME280;32676;52.630;4.896;2024-01-15T00:51:18;100797.47;;;3.17;78.66
46942;BME280;32676;52.630;4.896;2024-01-15T00:53:46;100813.88;;;3.22;78.56
46942;BME280;32676;52.630;4.896;2024-01-15T00:56:13;100808.69;;;3.22;78.36
46942;BME280;32676;52.630;4.896;2024-01-15T00:58:39;100826.88;;;3.25;77.99
46942;BME280;32676;52.630;4.896;2024-01-15T01:01:06;100831.19;;;3.26;77.60
46942;BME280;32676;52.630;4.896;2024-01-15T01:03:32;100818.25;;;3.17;76.87
46942;BME280;32676;52.630;4.896;2024-01-15T01:05:59;100842.44;;;3.28;76.62
46942;BME280;32676;52.630;4.896;2024-01-15T01:08:25;100861.50;;;3.33;76.13
46942;BME280;32676;52.630;4.896;2024-01-15T01:10:55;100851.09;;;3.33;75.56
46942;BME280;32676;52.630;4.896;2024-01-15T01:13:22;100867.53;;;3.35;75.44
46942;BME280;32676;52.630;4.896;2024-01-15T01:15:48;100862.34;;;3.37;75.31
46942;BME280;32676;52.630;4.896;2024-01-15T01:18:15;100872.72;;;3.37;75.34
46942;BME280;32676;52.630;4.896;2024-01-15T01:20:41;100883.97;;;3.40;75.32
46942;BME280;32676;52.630;4.896;2024-01-15T01:23:08;100877.06;;;3.33;75.35
46942;BME280;32676;52.630;4.896;2024-01-15T01:25:34;100897.81;;;3.42;75.74
46942;BME280;32676;52.630;4.896;2024-01-15T01:28:03;100901.28;;;3.44;75.85
46942;BME280;32676;52.630;4.896;2024-01-15T01:30:29;100891.75;;;3.42;76.32
46942;BME280;32676;52.630;4.896;2024-01-15T01:32:56;100871.84;;;3.36;76.79
46942;BME280;32676;52.630;4.896;2024-01-15T01:35:22;100852.81;;;3.34;77.13
46942;BME280;32676;52.630;4.896;2024-01-15T01:37:49;100852.81;;;3.34;77.32
46942;BME280;32676;52.630;4.896;2024-01-15T01:40:15;100866.66;;;3.36;77.82
46942;BME280;32676;52.630;4.896;2024-01-15T01:42:42;100858.88;;;3.35;77.90
46942;BME280;32676;52.630;4.896;2024-01-15T01:45:10;100868.41;;;3.36;77.95
46942;BME280;32676;52.630;4.896;2024-01-15T01:47:37;100852.81;;;3.34;78.01
46942;BME280;32676;52.630;4.896;2024-01-15T01:50:05;100865.78;;;3.36;77.90
46942;BME280;32676;52.630;4.896;2024-01-15T01:52:32;100857.16;;;3.32;77.87
46942;BME280;32676;52.630;4.896;2024-01-15T01:55:00;100864.94;;;3.35;78.14
46942;BME280;32676;52.630;4.896;2024-01-15T01:57:28;100871.00;;;3.37;78.30
46942;BME280;32676;52.630;4.896;2024-01-15T01:59:56;100877.03;;;3.39;78.58
46942;BME280;32676;52.630;4.896;2024-01-15T02:02:24;100870.13;;;3.35;78.67
46942;BME280;32676;52.630;4.896;2024-01-15T02:04:51;100859.75;;;3.35;79.00
46942;BME280;32676;52.630;4.896;2024-01-15T02:07:18;100851.97;;;3.35;79.09
46942;BME280;32676;52.630;4.896;2024-01-15T02:09:44;100858.00;;;3.34;79.29
46942;BME280;32676;52.630;4.896;2024-01-15T02:12:11;100858.88;;;3.35;79.44
46942;BME280;32676;52.630;4.896;2024-01-15T02:14:39;100847.63;;;3.34;79.65
46942;BME280;32676;52.630;4.896;2024-01-15T02:17:06;100851.09;;;3.33;79.57
46942;BME280;32676;52.630;4.896;2024-01-15T02:19:34;100831.19;;;3.31;79.37
46942;BME280;32676;52.630;4.896;2024-01-15T02:22:00;100795.69;;;3.22;79.28
46942;BME280;32676;52.630;4.896;2024-01-15T02:24:28;100778.44;;;3.15;79.04
46942;BME280;32676;52.630;4.896;2024-01-15T02:26:54;100767.16;;;3.13;78.70
46942;BME280;32676;52.630;4.896;2024-01-15T02:29:21;100754.22;;;3.11;78.67
46942;BME280;32676;52.630;4.896;2024-01-15T02:31:48;100757.66;;;3.12;78.09
46942;BME280;32676;52.630;4.896;2024-01-15T02:34:15;100767.16;;;3.14;78.12
46942;BME280;32676;52.630;4.896;2024-01-15T02:36:41;100776.69;;;3.17;78.09
46942;BME280;32676;52.630;4.896;2024-01-15T02:39:08;100774.97;;;3.16;78.00
46942;BME280;32676;52.630;4.896;2024-01-15T02:41:36;100771.50;;;3.17;78.13
46942;BME280;32676;52.630;4.896;2024-01-15T02:44:02;100771.50;;;3.17;77.97
46942;BME280;32676;52.630;4.896;2024-01-15T02:46:29;100766.31;;;3.11;78.01
46942;BME280;32676;52.630;4.896;2024-01-15T02:48:55;100748.13;;;3.09;78.06
46942;BME280;32676;52.630;4.896;2024-01-15T02:51:22;100742.09;;;3.07;78.03
46942;BME280;32676;52.630;4.896;2024-01-15T02:53:49;100726.56;;;3.02;78.32
46942;BME280;32676;52.630;4.896;2024-01-15T02:56:16;100717.03;;;3.01;78.39
46942;BME280;32676;52.630;4.896;2024-01-15T02:58:44;100687.63;;;2.95;78.57
46942;BME280;32676;52.630;4.896;2024-01-15T03:01:10;100674.69;;;2.92;78.93
46942;BME280;32676;52.630;4.896;2024-01-15T03:03:37;100674.69;;;2.90;79.08
46942;BME280;32676;52.630;4.896;2024-01-15T03:06:04;100667.75;;;2.92;79.49
46942;BME280;32676;52.630;4.896;2024-01-15T03:08:30;100690.22;;;2.96;79.80
46942;BME280;32676;52.630;4.896;2024-01-15T03:10:57;100707.53;;;3.00;79.76
46942;BME280;32676;52.630;4.896;2024-01-15T03:13:24;100726.53;;;3.05;80.21
46942;BME280;32676;52.630;4.896;2024-01-15T03:15:52;100736.03;;;3.05;80.26
46942;BME280;32676;52.630;4.896;2024-01-15T03:18:18;100744.69;;;3.08;80.76
46942;BME280;32676;52.630;4.896;2024-01-15T03:20:45;100778.41;;;3.18;81.09
46942;BME280;32676;52.630;4.896;2024-01-15T03:23:11;100792.25;;;3.21;81.55
46942;BME280;32676;52.630;4.896;2024-01-15T03:25:38;100800.91;;;3.25;81.86
46942;BME280;32676;52.630;4.896;2024-01-15T03:28:05;100800.91;;;3.25;82.02
46942;BME280;32676;52.630;4.896;2024-01-15T03:30:31;100803.50;;;3.26;82.27
46942;BME280;32676;52.630;4.896;2024-01-15T03:32:59;100806.09;;;3.25;82.25
46942;BME280;32676;52.630;4.896;2024-01-15T03:35:25;100800.03;;;3.24;81.96
46942;BME280;32676;52.630;4.896;2024-01-15T03:37:54;100794.03;;;3.15;81.59
46942;BME280;32676;52.630;4.896;2024-01-15T03:40:21;100801.75;;;3.25;81.11
46942;BME280;32676;52.630;4.896;2024-01-15T03:42:47;100809.53;;;3.27;81.04
46942;BME280;32676;52.630;4.896;2024-01-15T03:45:14;100804.34;;;3.27;80.72
46942;BME280;32676;52.630;4.896;2024-01-15T03:47:40;100804.34;;;3.27;80.33
46942;BME280;32676;52.630;4.896;2024-01-15T03:50:09;100812.13;;;3.27;80.12
46942;BME280;32676;52.630;4.896;2024-01-15T03:52:35;100815.63;;;3.28;79.81
46942;BME280;32676;52.630;4.896;2024-01-15T03:55:03;100818.19;;;3.29;79.28
46942;BME280;32676;52.630;4.896;2024-01-15T03:57:30;100823.38;;;3.29;79.14
46942;BME280;32676;52.630;4.896;2024-01-15T03:59:57;100806.09;;;3.25;78.67
46942;BME280;32676;52.630;4.896;2024-01-15T04:02:23;100814.75;;;3.27;78.43
46942;BME280;32676;52.630;4.896;2024-01-15T04:04:49;100818.19;;;3.29;78.21
46942;BME280;32676;52.630;4.896;2024-01-15T04:07:17;100822.53;;;3.30;78.32
46942;BME280;32676;52.630;4.896;2024-01-15T04:09:44;100826.88;;;3.31;78.05
46942;BME280;32676;52.630;4.896;2024-01-15T04:12:10;100844.16;;;3.35;78.04
46942;BME280;32676;52.630;4.896;2024-01-15T04:14:37;100823.38;;;3.29;77.67
46942;BME280;32676;52.630;4.896;2024-01-15T04:17:04;100813.88;;;3.28;77.59
46942;BME280;32676;52.630;4.896;2024-01-15T04:19:30;100776.66;;;3.20;77.52
46942;BME280;32676;52.630;4.896;2024-01-15T04:21:56;100730.00;;;3.07;77.54
46942;BME280;32676;52.630;4.896;2024-01-15T04:24:24;100688.50;;;2.95;77.94
46942;BME280;32676;52.630;4.896;2024-01-15T04:26:51;100645.28;;;2.88;78.21
46942;BME280;32676;52.630;4.896;2024-01-15T04:29:18;100602.06;;;2.78;78.55
46942;BME280;32676;52.630;4.896;2024-01-15T04:31:44;100583.09;;;2.69;78.72
46942;BME280;32676;52.630;4.896;2024-01-15T04:34:10;100569.25;;;2.67;79.18
46942;BME280;32676;52.630;4.896;2024-01-15T04:36:38;100569.25;;;2.67;79.48
46942;BME280;32676;52.630;4.896;2024-01-15T04:39:05;100570.97;;;2.68;79.89
46942;BME280;32676;52.630;4.896;2024-01-15T04:41:33;100576.16;;;2.68;80.04
46942;BME280;32676;52.630;4.896;2024-01-15T04:44:00;100574.41;;;2.71;80.29
46942;BME280;32676;52.630;4.896;2024-01-15T04:46:26;100588.22;;;2.73;80.64
46942;BME280;32676;52.630;4.896;2024-01-15T04:48:53;100596.88;;;2.75;80.84
46942;BME280;32676;52.630;4.896;2024-01-15T04:51:19;100584.78;;;2.74;80.99
46942;BME280;32676;52.630;4.896;2024-01-15T04:53:46;100583.03;;;2.73;81.07
46942;BME280;32676;52.630;4.896;2024-01-15T04:56:12;100577.84;;;2.73;81.04
46942;BME280;32676;52.630;4.896;2024-01-15T04:58:40;100551.09;;;2.66;80.86
46942;BME280;32676;52.630;4.896;2024-01-15T05:01:07;100498.41;;;2.53;80.67
46942;BME280;32676;52.630;4.896;2024-01-15T05:03:35;100429.34;;;2.34;80.48
46942;BME280;32676;52.630;4.896;2024-01-15T05:06:01;100364.63;;;2.18;80.56
46942;BME280;32676;52.630;4.896;2024-01-15T05:08:28;100310.28;;;2.06;80.72
46942;BME280;32676;52.630;4.896;2024-01-15T05:10:54;100280.94;;;1.98;81.00
46942;BME280;32676;52.630;4.896;2024-01-15T05:13:21;100258.53;;;1.94;81.42
46942;BME280;32676;52.630;4.896;2024-01-15T05:15:49;100250.75;;;1.92;81.68
46942;BME280;32676;52.630;4.896;2024-01-15T05:18:16;100246.47;;;1.89;82.19
46942;BME280;32676;52.630;4.896;2024-01-15T05:20:41;100249.06;;;1.89;82.53
46942;BME280;32676;52.630;4.896;2024-01-15T05:23:08;100249.91;;;1.88;82.86
46942;BME280;32676;52.630;4.896;2024-01-15T05:25:34;100260.22;;;1.95;83.26
46942;BME280;32676;52.630;4.896;2024-01-15T05:28:01;100280.94;;;1.98;83.61
46942;BME280;32676;52.630;4.896;2024-01-15T05:30:28;100277.50;;;1.99;84.01
46942;BME280;32676;52.630;4.896;2024-01-15T05:32:56;100287.84;;;2.02;84.09
46942;BME280;32676;52.630;4.896;2024-01-15T05:35:25;100305.09;;;2.06;84.43
46942;BME280;32676;52.630;4.896;2024-01-15T05:37:52;100314.59;;;2.05;84.60
46942;BME280;32676;52.630;4.896;2024-01-15T05:40:18;100323.19;;;2.09;84.69
46942;BME280;32676;52.630;4.896;2024-01-15T05:42:44;100323.19;;;2.09;84.76
46942;BME280;32676;52.630;4.896;2024-01-15T05:45:11;100328.38;;;2.10;84.94
46942;BME280;32676;52.630;4.896;2024-01-15T05:47:37;100333.56;;;2.10;84.91
46942;BME280;32676;52.630;4.896;2024-01-15T05:50:06;100345.63;;;2.15;84.90
46942;BME280;32676;52.630;4.896;2024-01-15T05:52:33;100364.63;;;2.20;84.83
46942;BME280;32676;52.630;4.896;2024-01-15T05:54:59;100372.38;;;2.23;84.83
46942;BME280;32676;52.630;4.896;2024-01-15T05:57:25;100374.13;;;2.22;84.67
46942;BME280;32676;52.630;4.896;2024-01-15T05:59:53;100366.34;;;2.21;84.80
46942;BME280;32676;52.630;4.896;2024-01-15T06:02:20;100371.53;;;2.22;84.77
46942;BME280;32676;52.630;4.896;2024-01-15T06:04:46;100374.13;;;2.22;84.41
46942;BME280;32676;52.630;4.896;2024-01-15T06:07:14;100363.75;;;2.19;84.16
46942;BME280;32676;52.630;4.896;2024-01-15T06:09:40;100346.50;;;2.15;83.89
46942;BME280;32676;52.630;4.896;2024-01-15T06:12:07;100335.31;;;2.11;83.49
46942;BME280;32676;52.630;4.896;2024-01-15T06:14:34;100322.34;;;2.10;83.08
46942;BME280;32676;52.630;4.896;2024-01-15T06:17:00;100321.50;;;2.09;82.68
46942;BME280;32676;52.630;4.896;2024-01-15T06:19:27;100313.72;;;2.08;82.18
46942;BME280;32676;52.630;4.896;2024-01-15T06:21:53;100315.44;;;2.09;81.61
46942;BME280;32676;52.630;4.896;2024-01-15T06:24:21;100318.91;;;2.08;81.31
46942;BME280;32676;52.630;4.896;2024-01-15T06:26:48;100318.03;;;2.09;81.08
46942;BME280;32676;52.630;4.896;2024-01-15T06:29:14;100319.75;;;2.10;80.84
46942;BME280;32676;52.630;4.896;2024-01-15T06:31:41;100322.34;;;2.10;80.65
46942;BME280;32676;52.630;4.896;2024-01-15T06:34:07;100332.72;;;2.13;80.17
46942;BME280;32676;52.630;4.896;2024-01-15T06:36:34;100338.75;;;2.15;80.20
46942;BME280;32676;52.630;4.896;2024-01-15T06:39:01;100330.97;;;2.09;80.14
46942;BME280;32676;52.630;4.896;2024-01-15T06:41:29;100351.69;;;2.17;80.09
46942;BME280;32676;52.630;4.896;2024-01-15T06:43:55;100362.91;;;2.19;80.07
46942;BME280;32676;52.630;4.896;2024-01-15T06:46:22;100365.50;;;2.20;80.28
46942;BME280;32676;52.630;4.896;2024-01-15T06:48:48;100381.00;;;2.25;80.30
46942;BME280;32676;52.630;4.896;2024-01-15T06:51:15;100388.78;;;2.28;80.34
46942;BME280;32676;52.630;4.896;2024-01-15T06:53:42;100406.03;;;2.30;80.18
46942;BME280;32676;52.630;4.896;2024-01-15T06:56:09;100412.06;;;2.33;80.25
46942;BME280;32676;52.630;4.896;2024-01-15T06:58:37;100412.94;;;2.33;80.11
46942;BME280;32676;52.630;4.896;2024-01-15T07:01:03;100413.81;;;2.34;79.98
46942;BME280;32676;52.630;4.896;2024-01-15T07:03:30;100424.16;;;2.37;79.90
46942;BME280;32676;52.630;4.896;2024-01-15T07:05:56;100422.44;;;2.36;79.74
46942;BME280;32676;52.630;4.896;2024-01-15T07:08:23;100437.09;;;2.40;79.80
46942;BME280;32676;52.630;4.896;2024-01-15T07:10:49;100441.44;;;2.41;79.71
46942;BME280;32676;52.630;4.896;2024-01-15T07:13:15;100444.00;;;2.42;79.65
46942;BME280;32676;52.630;4.896;2024-01-15T07:15:44;100451.78;;;2.44;79.58
46942;BME280;32676;52.630;4.896;2024-01-15T07:18:10;100451.78;;;2.41;79.65
46942;BME280;32676;52.630;4.896;2024-01-15T07:20:37;100478.53;;;2.50;79.57
46942;BME280;32676;52.630;4.896;2024-01-15T07:23:04;100482.88;;;2.50;79.25
46942;BME280;32676;52.630;4.896;2024-01-15T07:25:30;100507.00;;;2.58;78.91
46942;BME280;32676;52.630;4.896;2024-01-15T07:27:56;100507.06;;;2.55;78.67
46942;BME280;32676;52.630;4.896;2024-01-15T07:30:23;100519.13;;;2.62;78.19
46942;BME280;32676;52.630;4.896;2024-01-15T07:32:51;100534.66;;;2.65;77.78
46942;BME280;32676;52.630;4.896;2024-01-15T07:35:18;100539.84;;;2.65;77.27
46942;BME280;32676;52.630;4.896;2024-01-15T07:37:44;100536.38;;;2.66;77.01
46942;BME280;32676;52.630;4.896;2024-01-15T07:40:11;100545.03;;;2.68;76.69
46942;BME280;32676;52.630;4.896;2024-01-15T07:42:37;100543.31;;;2.61;76.70
46942;BME280;32676;52.630;4.896;2024-01-15T07:45:05;100554.53;;;2.68;76.49
46942;BME280;32676;52.630;4.896;2024-01-15T07:47:31;100551.94;;;2.69;76.39
46942;BME280;32676;52.630;4.896;2024-01-15T07:49:59;100530.41;;;2.57;76.42
46942;BME280;32676;52.630;4.896;2024-01-15T07:52:26;100529.47;;;2.65;76.39
46942;BME280;32676;52.630;4.896;2024-01-15T07:54:52;100529.47;;;2.65;76.30
46942;BME280;32676;52.630;4.896;2024-01-15T07:57:20;100520.84;;;2.63;76.20
46942;BME280;32676;52.630;4.896;2024-01-15T07:59:46;100518.25;;;2.62;76.21
46942;BME280;32676;52.630;4.896;2024-01-15T08:02:13;100508.75;;;2.59;75.82
46942;BME280;32676;52.630;4.896;2024-01-15T08:04:40;100536.38;;;2.66;75.77
46942;BME280;32676;52.630;4.896;2024-01-15T08:07:08;100560.59;;;2.72;75.49
46942;BME280;32676;52.630;4.896;2024-01-15T08:09:34;100569.22;;;2.74;75.28
46942;BME280;32676;52.630;4.896;2024-01-15T08:12:01;100550.22;;;2.72;75.32
46942;BME280;32676;52.630;4.896;2024-01-15T08:14:27;100511.34;;;2.61;75.80
46942;BME280;32676;52.630;4.896;2024-01-15T08:16:54;100494.94;;;2.57;76.36
46942;BME280;32676;52.630;4.896;2024-01-15T08:19:20;100501.81;;;2.58;77.14
46942;BME280;32676;52.630;4.896;2024-01-15T08:21:47;100494.94;;;2.57;77.73
46942;BME280;32676;52.630;4.896;2024-01-15T08:24:15;100514.78;;;2.61;78.60
46942;BME280;32676;52.630;4.896;2024-01-15T08:26:42;100512.19;;;2.61;78.70
46942;BME280;32676;52.630;4.896;2024-01-15T08:29:08;100507.06;;;2.52;79.15
46942;BME280;32676;52.630;4.896;2024-01-15T08:31:35;100555.41;;;2.72;79.11
46942;BME280;32676;52.630;4.896;2024-01-15T08:34:01;100562.28;;;2.74;79.60
46942;BME280;32676;52.630;4.896;2024-01-15T08:36:28;100570.09;;;2.71;79.86
46942;BME280;32676;52.630;4.896;2024-01-15T08:38:54;100603.78;;;2.79;79.84
46942;BME280;32676;52.630;4.896;2024-01-15T08:41:22;100653.03;;;2.96;79.72
46942;BME280;32676;52.630;4.896;2024-01-15T08:43:50;100667.69;;;3.01;79.30
46942;BME280;32676;52.630;4.896;2024-01-15T08:46:18;100672.91;;;2.98;78.74
46942;BME280;32676;52.630;4.896;2024-01-15T08:48:44;100698.84;;;3.07;78.13
46942;BME280;32676;52.630;4.896;2024-01-15T08:51:11;100700.56;;;3.08;77.48
46942;BME280;32676;52.630;4.896;2024-01-15T08:53:37;100707.50;;;3.06;77.03
46942;BME280;32676;52.630;4.896;2024-01-15T08:56:05;100728.22;;;3.13;76.82
46942;BME280;32676;52.630;4.896;2024-01-15T08:58:32;100726.53;;;3.15;76.69
46942;BME280;32676;52.630;4.896;2024-01-15T09:00:59;100734.28;;;3.16;76.46
46942;BME280;32676;52.630;4.896;2024-01-15T09:03:25;100753.31;;;3.21;76.15
46942;BME280;32676;52.630;4.896;2024-01-15T09:05:52;100764.53;;;3.25;75.98
46942;BME280;32676;52.630;4.896;2024-01-15T09:08:20;100787.03;;;3.29;75.91
46942;BME280;32676;52.630;4.896;2024-01-15T09:10:46;100806.09;;;3.31;75.53
46942;BME280;32676;52.630;4.896;2024-01-15T09:13:13;100821.66;;;3.37;75.17
46942;BME280;32676;52.630;4.896;2024-01-15T09:15:40;100833.75;;;3.41;75.22
46942;BME280;32676;52.630;4.896;2024-01-15T09:18:08;100849.34;;;3.44;74.76
46942;BME280;32676;52.630;4.896;2024-01-15T09:20:34;100866.63;;;3.52;74.52
46942;BME280;32676;52.630;4.896;2024-01-15T09:23:01;100882.22;;;3.52;74.21
46942;BME280;32676;52.630;4.896;2024-01-15T09:25:28;100923.75;;;3.64;73.83
46942;BME280;32676;52.630;4.896;2024-01-15T09:27:54;100986.09;;;3.79;73.46
46942;BME280;32676;52.630;4.896;2024-01-15T09:30:21;101023.31;;;3.89;73.34
46942;BME280;32676;52.630;4.896;2024-01-15T09:32:49;101042.38;;;3.94;73.37
46942;BME280;32676;52.630;4.896;2024-01-15T09:35:15;101057.97;;;3.97;72.92
46942;BME280;32676;52.630;4.896;2024-01-15T09:37:42;101086.56;;;4.05;72.72
46942;BME280;32676;52.630;4.896;2024-01-15T09:40:12;101065.78;;;3.99;72.73
46942;BME280;32676;52.630;4.896;2024-01-15T09:42:40;101032.00;;;3.91;72.83
46942;BME280;32676;52.630;4.896;2024-01-15T09:45:08;100998.22;;;3.80;72.99
46942;BME280;32676;52.630;4.896;2024-01-15T09:47:35;100958.38;;;3.69;73.18
46942;BME280;32676;52.630;4.896;2024-01-15T09:50:04;100954.06;;;3.71;73.15
46942;BME280;32676;52.630;4.896;2024-01-15T09:52:30;100932.41;;;3.66;72.63
46942;BME280;32676;52.630;4.896;2024-01-15T09:54:58;100919.44;;;3.63;72.43
46942;BME280;32676;52.630;4.896;2024-01-15T09:57:25;100906.44;;;3.60;71.99
46942;BME280;32676;52.630;4.896;2024-01-15T09:59:52;100865.78;;;3.46;72.02
46942;BME280;32676;52.630;4.896;2024-01-15T10:02:20;100869.22;;;3.52;72.26
46942;BME280;32676;52.630;4.896;2024-01-15T10:04:47;100875.28;;;3.54;72.85
46942;BME280;32676;52.630;4.896;2024-01-15T10:07:16;100854.53;;;3.44;73.46
46942;BME280;32676;52.630;4.896;2024-01-15T10:09:44;100825.94;;;3.40;74.33
46942;BME280;32676;52.630;4.896;2024-01-15T10:12:11;100749.84;;;3.21;74.90
46942;BME280;32676;52.630;4.896;2024-01-15T10:14:38;100681.53;;;3.06;75.70
46942;BME280;32676;52.630;4.896;2024-01-15T10:17:12;100612.41;;;2.87;76.48
46942;BME280;32676;52.630;4.896;2024-01-15T10:19:39;100555.34;;;2.75;77.03
46942;BME280;32676;52.630;4.896;2024-01-15T10:22:06;100545.03;;;2.72;77.28
46942;BME280;32676;52.630;4.896;2024-01-15T10:24:35;100527.75;;;2.67;77.46
46942;BME280;32676;52.630;4.896;2024-01-15T10:27:05;100558.84;;;2.77;77.20
46942;BME280;32676;52.630;4.896;2024-01-15T10:29:32;100583.00;;;2.82;77.40
46942;BME280;32676;52.630;4.896;2024-01-15T10:31:59;100555.41;;;2.72;77.47
46942;BME280;32676;52.630;4.896;2024-01-15T10:34:26;100555.34;;;2.75;77.73
46942;BME280;32676;52.630;4.896;2024-01-15T10:36:53;100555.34;;;2.75;77.63
46942;BME280;32676;52.630;4.896;2024-01-15T10:39:20;100583.00;;;2.82;77.64
46942;BME280;32676;52.630;4.896;2024-01-15T10:41:48;100617.59;;;2.87;77.47
46942;BME280;32676;52.630;4.896;2024-01-15T10:44:17;100650.44;;;2.94;77.26
46942;BME280;32676;52.630;4.896;2024-01-15T10:46:44;100739.47;;;3.21;77.36
46942;BME280;32676;52.630;4.896;2024-01-15T10:49:11;100790.50;;;3.25;77.36
46942;BME280;32676;52.630;4.896;2024-01-15T10:51:38;100860.56;;;3.51;77.46
46942;BME280;32676;52.630;4.896;2024-01-15T10:54:07;100881.34;;;3.56;77.43
46942;BME280;32676;52.630;4.896;2024-01-15T10:56:37;100903.84;;;3.60;77.17
46942;BME280;32676;52.630;4.896;2024-01-15T10:59:04;100913.38;;;3.64;77.01
46942;BME280;32676;52.630;4.896;2024-01-15T11:01:33;100935.88;;;3.68;76.52
46942;BME280;32676;52.630;4.896;2024-01-15T11:04:00;100943.63;;;3.73;76.51
46942;BME280;32676;52.630;4.896;2024-01-15T11:06:28;100955.78;;;3.74;76.35
46942;BME280;32676;52.630;4.896;2024-01-15T11:08:55;100954.06;;;3.71;76.08
46942;BME280;32676;52.630;4.896;2024-01-15T11:11:21;100904.72;;;3.53;75.71
46942;BME280;32676;52.630;4.896;2024-01-15T11:13:48;100868.34;;;3.53;75.35
46942;BME280;32676;52.630;4.896;2024-01-15T11:16:18;100818.16;;;3.38;74.96
46942;BME280;32676;52.630;4.896;2024-01-15T11:19:02;100789.63;;;3.34;75.20
46942;BME280;32676;52.630;4.896;2024-01-15T11:21:41;100769.75;;;3.28;75.43
46942;BME280;32676;52.630;4.896;2024-01-15T11:24:09;100746.38;;;3.23;75.74
46942;BME280;32676;52.630;4.896;2024-01-15T11:26:44;100704.00;;;3.14;76.04
46942;BME280;32676;52.630;4.896;2024-01-15T11:29:30;100697.09;;;3.06;76.27
46942;BME280;32676;52.630;4.896;2024-01-15T11:32:00;100705.75;;;3.07;76.56
46942;BME280;32676;52.630;4.896;2024-01-15T11:34:58;100740.31;;;3.20;76.82
46942;BME280;32676;52.630;4.896;2024-01-15T11:37:29;100699.66;;;3.13;77.08
46942;BME280;32676;52.630;4.896;2024-01-15T11:40:00;100646.94;;;2.98;77.26
46942;BME280;32676;52.630;4.896;2024-01-15T11:42:29;100578.69;;;2.79;77.66
46942;BME280;32676;52.630;4.896;2024-01-15T11:44:56;100562.28;;;2.76;78.18
46942;BME280;32676;52.630;4.896;2024-01-15T11:47:57;100518.22;;;2.65;78.69
46942;BME280;32676;52.630;4.896;2024-01-15T11:50:29;100515.63;;;2.66;78.86
46942;BME280;32676;52.630;4.896;2024-01-15T11:52:59;100488.00;;;2.62;79.13
46942;BME280;32676;52.630;4.896;2024-01-15T11:55:27;100489.75;;;2.59;79.24
46942;BME280;32676;52.630;4.896;2024-01-15T11:57:54;100510.44;;;2.63;79.17
46942;BME280;32676;52.630;4.896;2024-01-15T12:00:23;100504.41;;;2.60;79.27
46942;BME280;32676;52.630;4.896;2024-01-15T12:02:51;100520.81;;;2.69;79.29
46942;BME280;32676;52.630;4.896;2024-01-15T12:05:19;100555.34;;;2.78;79.19
46942;BME280;32676;52.630;4.896;2024-01-15T12:07:47;100600.28;;;2.89;79.31
46942;BME280;32676;52.630;4.896;2024-01-15T12:10:15;100654.72;;;2.98;79.14
46942;BME280;32676;52.630;4.896;2024-01-15T12:12:50;100714.38;;;3.17;79.52
46942;BME280;32676;52.630;4.896;2024-01-15T12:15:20;100767.13;;;3.28;79.25
46942;BME280;32676;52.630;4.896;2024-01-15T12:17:46;100795.66;;;3.34;79.33
46942;BME280;32676;52.630;4.896;2024-01-15T12:20:15;100830.25;;;3.47;79.18
46942;BME280;32676;52.630;4.896;2024-01-15T12:22:42;100840.66;;;3.45;79.16
46942;BME280;32676;52.630;4.896;2024-01-15T12:25:08;100839.81;;;3.36;78.58
46942;BME280;32676;52.630;4.896;2024-01-15T12:27:35;100899.53;;;3.59;78.12
46942;BME280;32676;52.630;4.896;2024-01-15T12:30:02;100945.38;;;3.74;77.35
46942;BME280;32676;52.630;4.896;2024-01-15T12:32:29;100967.91;;;3.79;76.32
46942;BME280;32676;52.630;4.896;2024-01-15T12:34:56;100979.16;;;3.81;75.13
46942;BME280;32676;52.630;4.896;2024-01-15T12:37:24;100987.81;;;3.87;73.96
46942;BME280;32676;52.630;4.896;2024-01-15T12:39:52;100989.56;;;3.78;72.63
46942;BME280;32676;52.630;4.896;2024-01-15T12:42:21;101057.97;;;4.02;71.82
46942;BME280;32676;52.630;4.896;2024-01-15T12:44:47;101100.44;;;4.13;71.28
46942;BME280;32676;52.630;4.896;2024-01-15T12:47:14;101171.50;;;4.31;70.84
46942;BME280;32676;52.630;4.896;2024-01-15T12:49:46;101221.78;;;4.39;70.42
46942;BME280;32676;52.630;4.896;2024-01-15T12:52:13;101289.44;;;4.60;70.02
46942;BME280;32676;52.630;4.896;2024-01-15T12:54:41;101259.94;;;4.52;70.00
46942;BME280;32676;52.630;4.896;2024-01-15T12:57:07;101187.09;;;4.34;69.72
46942;BME280;32676;52.630;4.896;2024-01-15T12:59:34;101065.75;;;4.05;69.44
46942;BME280;32676;52.630;4.896;2024-01-15T13:02:00;100988.66;;;3.85;69.49